• LFSB

    METAR de LFSB (émis le 2022/05/17 14:00 UTC):
    LFSB 171400Z 01004KT 290V080 9999 FEW056TCU BKN260 27/11 Q1019 NOSIG

    TAF de LFSB (émis le 2022/05/17 12:22 UTC):
    LFSB 171100Z 1712/1812 36005KT 9999 FEW045 PROB40 TEMPO 1801/1804 MIFG
  • LFSX

    METAR de LFSX (émis le 2022/05/17 14:00 UTC):
    LFSX 171400Z AUTO VRB03KT CAVOK 28/13 Q1019

    TAF de LFSX (émis le 2022/05/17 15:03 UTC):
    LFSX 171400Z 1715/1815 11005KT CAVOK
  • LFSD

    METAR de LFSD (émis le 2022/05/17 14:00 UTC):
    LFSD 171400Z AUTO 04006KT 010V090 CAVOK 28/11 Q1018

    TAF de LFSD (émis le 2015/06/01 00:11 UTC):
    LFSD 010600Z 0100/0124 CNL
  • LFGJ

    METAR de LFGJ (émis le 2022/05/17 14:00 UTC):
    LFGJ 171400Z AUTO 04005KT 350V130 CAVOK 28/13 Q1018 NOSIG

    TAF COURT de LFGJ
    (émis le 2022/05/17 12:22 UTC):
    TAF LFGJ 171100Z 1712/1721 04006KT CAVOK= TAF LFRG 171100Z 1712/1721 13012KT CAVOK TEMPO 1716/1721 4000 SHRA BKN040CB PROB40 TEMPO 1716/1719 VRB20G35KT TSGR BECMG 1716/1719 30012KT
  • LFJL

    METAR de LFJL (émis le 2022/05/17 14:00 UTC):
    LFJL 171400Z AUTO VRB04KT CAVOK 26/11 Q1020 NOSIG

    TAF de LFJL (émis le 2022/05/17 12:22 UTC):
    LFJL 171100Z 1712/1812 11006KT CAVOK= LFLC 171100Z 1712/1812 06006KT CAVOK TEMPO 1718/1808 VRB02KT
  • LFST

    METAR de LFST (émis le 2022/05/17 14:00 UTC):
    LFST 171400Z AUTO VRB03KT CAVOK 27/10 Q1019 NOSIG

    TAF de LFST (émis le 2022/05/17 12:22 UTC):
    LFST 171100Z 1712/1812 VRB04KT CAVOK